sensor_id;sensor_type;location;lat;lon;timestamp;P1;durP1;ratioP1;P2;durP2;ratioP2
25153;SDS011;47555;51.038;6.280;2022-07-23T00:01:34;6.55;;;5.05;;
25153;SDS011;47555;51.038;6.280;2022-07-23T00:04:00;7.18;;;4.40;;
25153;SDS011;47555;51.038;6.280;2022-07-23T00:06:26;7.28;;;4.45;;
25153;SDS011;47555;51.038;6.280;2022-07-23T00:08:51;5.80;;;4.10;;
25153;SDS011;47555;51.038;6.280;2022-07-23T00:11:17;6.78;;;3.92;;
25153;SDS011;47555;51.038;6.280;2022-07-23T00:13:43;6.07;;;5.00;;
25153;SDS011;47555;51.038;6.280;2022-07-23T00:16:09;5.88;;;4.50;;
25153;SDS011;47555;51.038;6.280;2022-07-23T00:18:34;5.68;;;4.35;;
25153;SDS011;47555;51.038;6.280;2022-07-23T00:21:00;8.68;;;4.80;;
25153;SDS011;47555;51.038;6.280;2022-07-23T00:23:25;8.00;;;5.35;;
25153;SDS011;47555;51.038;6.280;2022-07-23T00:25:53;7.13;;;5.40;;
25153;SDS011;47555;51.038;6.280;2022-07-23T00:28:18;9.77;;;6.28;;
25153;SDS011;47555;51.038;6.280;2022-07-23T00:30:44;8.02;;;5.32;;
25153;SDS011;47555;51.038;6.280;2022-07-23T00:33:10;8.88;;;5.93;;
25153;SDS011;47555;51.038;6.280;2022-07-23T00:35:37;7.00;;;4.53;;
25153;SDS011;47555;51.038;6.280;2022-07-23T00:38:08;6.38;;;4.50;;
25153;SDS011;47555;51.038;6.280;2022-07-23T00:40:35;8.23;;;4.85;;
25153;SDS011;47555;51.038;6.280;2022-07-23T00:43:02;7.20;;;4.93;;
25153;SDS011;47555;51.038;6.280;2022-07-23T00:45:28;9.02;;;5.35;;
25153;SDS011;47555;51.038;6.280;2022-07-23T00:47:54;7.03;;;4.65;;
25153;SDS011;47555;51.038;6.280;2022-07-23T00:50:19;8.35;;;4.63;;
25153;SDS011;47555;51.038;6.280;2022-07-23T00:52:45;5.93;;;4.47;;
25153;SDS011;47555;51.038;6.280;2022-07-23T00:55:11;5.80;;;4.55;;
25153;SDS011;47555;51.038;6.280;2022-07-23T00:57:38;5.18;;;4.15;;
25153;SDS011;47555;51.038;6.280;2022-07-23T01:00:05;5.65;;;4.55;;
25153;SDS011;47555;51.038;6.280;2022-07-23T01:02:33;6.88;;;4.68;;
25153;SDS011;47555;51.038;6.280;2022-07-23T01:04:58;6.82;;;4.63;;
25153;SDS011;47555;51.038;6.280;2022-07-23T01:07:24;5.78;;;4.32;;
25153;SDS011;47555;51.038;6.280;2022-07-23T01:09:51;6.97;;;4.78;;
25153;SDS011;47555;51.038;6.280;2022-07-23T01:12:17;7.78;;;5.28;;
25153;SDS011;47555;51.038;6.280;2022-07-23T01:14:43;5.40;;;4.30;;
25153;SDS011;47555;51.038;6.280;2022-07-23T01:17:09;5.57;;;4.13;;
25153;SDS011;47555;51.038;6.280;2022-07-23T01:19:34;5.32;;;4.30;;
25153;SDS011;47555;51.038;6.280;2022-07-23T01:22:01;6.95;;;4.60;;
25153;SDS011;47555;51.038;6.280;2022-07-23T01:24:28;6.00;;;4.38;;
25153;SDS011;47555;51.038;6.280;2022-07-23T01:26:54;5.95;;;4.30;;
25153;SDS011;47555;51.038;6.280;2022-07-23T01:29:20;5.53;;;4.50;;
25153;SDS011;47555;51.038;6.280;2022-07-23T01:31:46;8.25;;;5.03;;
25153;SDS011;47555;51.038;6.280;2022-07-23T01:34:12;6.55;;;4.70;;
25153;SDS011;47555;51.038;6.280;2022-07-23T01:36:38;6.13;;;4.32;;
25153;SDS011;47555;51.038;6.280;2022-07-23T01:39:05;6.43;;;4.32;;
25153;SDS011;47555;51.038;6.280;2022-07-23T01:41:32;6.63;;;4.95;;
25153;SDS011;47555;51.038;6.280;2022-07-23T01:43:58;6.72;;;6.00;;
25153;SDS011;47555;51.038;6.280;2022-07-23T01:46:23;6.85;;;4.65;;
25153;SDS011;47555;51.038;6.280;2022-07-23T01:48:49;7.65;;;5.53;;
25153;SDS011;47555;51.038;6.280;2022-07-23T01:51:15;6.90;;;4.90;;
25153;SDS011;47555;51.038;6.280;2022-07-23T01:53:40;7.57;;;5.60;;
25153;SDS011;47555;51.038;6.280;2022-07-23T01:56:06;7.07;;;5.13;;
25153;SDS011;47555;51.038;6.280;2022-07-23T01:58:32;8.05;;;5.70;;
25153;SDS011;47555;51.038;6.280;2022-07-23T02:00:58;7.30;;;5.07;;
25153;SDS011;47555;51.038;6.280;2022-07-23T02:03:23;8.52;;;5.78;;
25153;SDS011;47555;51.038;6.280;2022-07-23T02:05:49;7.00;;;4.97;;
25153;SDS011;47555;51.038;6.280;2022-07-23T02:08:15;7.40;;;4.70;;
25153;SDS011;47555;51.038;6.280;2022-07-23T02:10:41;8.05;;;5.38;;
25153;SDS011;47555;51.038;6.280;2022-07-23T02:13:07;7.53;;;5.55;;
25153;SDS011;47555;51.038;6.280;2022-07-23T02:15:33;8.27;;;5.55;;
25153;SDS011;47555;51.038;6.280;2022-07-23T02:17:58;9.02;;;5.95;;
25153;SDS011;47555;51.038;6.280;2022-07-23T02:20:24;6.50;;;4.97;;
25153;SDS011;47555;51.038;6.280;2022-07-23T02:22:50;6.85;;;5.13;;
25153;SDS011;47555;51.038;6.280;2022-07-23T02:25:16;8.65;;;5.90;;
25153;SDS011;47555;51.038;6.280;2022-07-23T02:27:41;6.82;;;4.97;;
25153;SDS011;47555;51.038;6.280;2022-07-23T02:30:07;5.90;;;4.80;;
25153;SDS011;47555;51.038;6.280;2022-07-23T02:32:33;6.97;;;5.47;;
25153;SDS011;47555;51.038;6.280;2022-07-23T02:34:59;6.30;;;4.95;;
25153;SDS011;47555;51.038;6.280;2022-07-23T02:37:25;6.30;;;4.45;;
25153;SDS011;47555;51.038;6.280;2022-07-23T02:39:51;5.03;;;4.03;;
25153;SDS011;47555;51.038;6.280;2022-07-23T02:42:16;7.05;;;4.82;;
25153;SDS011;47555;51.038;6.280;2022-07-23T02:44:42;7.05;;;5.50;;
25153;SDS011;47555;51.038;6.280;2022-07-23T02:47:08;5.80;;;4.45;;
25153;SDS011;47555;51.038;6.280;2022-07-23T02:49:33;6.53;;;4.78;;
25153;SDS011;47555;51.038;6.280;2022-07-23T02:51:59;7.00;;;4.60;;
25153;SDS011;47555;51.038;6.280;2022-07-23T02:54:25;8.15;;;4.72;;
25153;SDS011;47555;51.038;6.280;2022-07-23T02:56:50;7.10;;;5.10;;
25153;SDS011;47555;51.038;6.280;2022-07-23T02:59:16;7.57;;;4.45;;
25153;SDS011;47555;51.038;6.280;2022-07-23T03:01:42;6.18;;;4.13;;
25153;SDS011;47555;51.038;6.280;2022-07-23T03:04:07;11.10;;;6.97;;
25153;SDS011;47555;51.038;6.280;2022-07-23T03:06:33;12.52;;;7.80;;
25153;SDS011;47555;51.038;6.280;2022-07-23T03:08:58;8.57;;;6.63;;
25153;SDS011;47555;51.038;6.280;2022-07-23T03:11:24;7.57;;;5.53;;
25153;SDS011;47555;51.038;6.280;2022-07-23T03:13:49;7.35;;;5.85;;
25153;SDS011;47555;51.038;6.280;2022-07-23T03:16:15;8.30;;;5.68;;
25153;SDS011;47555;51.038;6.280;2022-07-23T03:18:40;6.60;;;4.72;;
25153;SDS011;47555;51.038;6.280;2022-07-23T03:21:06;6.57;;;5.00;;
25153;SDS011;47555;51.038;6.280;2022-07-23T03:23:32;5.75;;;4.72;;
25153;SDS011;47555;51.038;6.280;2022-07-23T03:25:57;7.68;;;5.95;;
25153;SDS011;47555;51.038;6.280;2022-07-23T03:28:23;10.00;;;6.13;;
25153;SDS011;47555;51.038;6.280;2022-07-23T03:30:48;6.43;;;5.07;;
25153;SDS011;47555;51.038;6.280;2022-07-23T03:33:14;6.45;;;5.22;;
25153;SDS011;47555;51.038;6.280;2022-07-23T03:35:41;6.03;;;4.50;;
25153;SDS011;47555;51.038;6.280;2022-07-23T03:38:11;6.63;;;5.20;;
25153;SDS011;47555;51.038;6.280;2022-07-23T03:40:37;6.30;;;5.25;;
25153;SDS011;47555;51.038;6.280;2022-07-23T03:43:02;8.30;;;5.93;;
25153;SDS011;47555;51.038;6.280;2022-07-23T03:45:28;10.95;;;6.50;;
25153;SDS011;47555;51.038;6.280;2022-07-23T03:47:54;5.80;;;4.95;;
25153;SDS011;47555;51.038;6.280;2022-07-23T03:50:19;6.25;;;4.55;;
25153;SDS011;47555;51.038;6.280;2022-07-23T03:52:45;6.60;;;4.65;;
25153;SDS011;47555;51.038;6.280;2022-07-23T03:55:11;6.20;;;5.25;;
25153;SDS011;47555;51.038;6.280;2022-07-23T03:57:37;6.93;;;5.05;;
25153;SDS011;47555;51.038;6.280;2022-07-23T04:00:03;6.35;;;4.60;;
25153;SDS011;47555;51.038;6.280;2022-07-23T04:02:31;7.95;;;6.30;;
25153;SDS011;47555;51.038;6.280;2022-07-23T04:04:56;10.38;;;6.35;;
25153;SDS011;47555;51.038;6.280;2022-07-23T04:07:22;8.20;;;5.78;;
25153;SDS011;47555;51.038;6.280;2022-07-23T04:09:47;8.02;;;5.90;;
25153;SDS011;47555;51.038;6.280;2022-07-23T04:12:13;6.55;;;5.45;;
25153;SDS011;47555;51.038;6.280;2022-07-23T04:14:39;7.88;;;5.55;;
25153;SDS011;47555;51.038;6.280;2022-07-23T04:17:05;8.63;;;5.00;;
25153;SDS011;47555;51.038;6.280;2022-07-23T04:19:30;8.02;;;5.88;;
25153;SDS011;47555;51.038;6.280;2022-07-23T04:21:56;6.57;;;5.15;;
25153;SDS011;47555;51.038;6.280;2022-07-23T04:24:22;7.63;;;5.57;;
25153;SDS011;47555;51.038;6.280;2022-07-23T04:26:48;11.43;;;6.00;;
25153;SDS011;47555;51.038;6.280;2022-07-23T04:29:13;8.57;;;6.25;;
25153;SDS011;47555;51.038;6.280;2022-07-23T04:31:39;7.78;;;4.93;;
25153;SDS011;47555;51.038;6.280;2022-07-23T04:34:04;7.30;;;5.60;;
25153;SDS011;47555;51.038;6.280;2022-07-23T04:36:30;9.00;;;6.03;;
25153;SDS011;47555;51.038;6.280;2022-07-23T04:38:55;9.18;;;5.18;;
25153;SDS011;47555;51.038;6.280;2022-07-23T04:41:21;8.10;;;5.93;;
25153;SDS011;47555;51.038;6.280;2022-07-23T04:43:46;7.50;;;5.75;;
25153;SDS011;47555;51.038;6.280;2022-07-23T04:46:12;8.45;;;5.80;;
25153;SDS011;47555;51.038;6.280;2022-07-23T04:48:38;7.95;;;5.63;;
25153;SDS011;47555;51.038;6.280;2022-07-23T04:51:04;7.82;;;5.85;;
25153;SDS011;47555;51.038;6.280;2022-07-23T04:53:30;11.00;;;7.20;;
25153;SDS011;47555;51.038;6.280;2022-07-23T04:55:55;9.90;;;6.22;;
25153;SDS011;47555;51.038;6.280;2022-07-23T04:58:21;10.85;;;7.32;;
25153;SDS011;47555;51.038;6.280;2022-07-23T05:00:47;10.40;;;6.60;;
25153;SDS011;47555;51.038;6.280;2022-07-23T05:03:12;11.52;;;6.55;;
25153;SDS011;47555;51.038;6.280;2022-07-23T05:05:38;10.85;;;7.30;;
25153;SDS011;47555;51.038;6.280;2022-07-23T05:08:04;10.63;;;7.25;;
25153;SDS011;47555;51.038;6.280;2022-07-23T05:10:30;11.45;;;7.57;;
25153;SDS011;47555;51.038;6.280;2022-07-23T05:12:55;9.23;;;6.85;;
25153;SDS011;47555;51.038;6.280;2022-07-23T05:15:21;10.68;;;7.60;;
25153;SDS011;47555;51.038;6.280;2022-07-23T05:17:47;11.18;;;6.97;;
25153;SDS011;47555;51.038;6.280;2022-07-23T05:20:12;12.50;;;8.45;;
25153;SDS011;47555;51.038;6.280;2022-07-23T05:22:38;10.40;;;6.97;;
25153;SDS011;47555;51.038;6.280;2022-07-23T05:25:04;10.98;;;7.93;;
25153;SDS011;47555;51.038;6.280;2022-07-23T05:27:30;12.02;;;8.50;;
25153;SDS011;47555;51.038;6.280;2022-07-23T05:29:56;15.95;;;8.88;;
25153;SDS011;47555;51.038;6.280;2022-07-23T05:32:22;14.90;;;10.00;;
25153;SDS011;47555;51.038;6.280;2022-07-23T05:34:47;16.40;;;10.30;;
25153;SDS011;47555;51.038;6.280;2022-07-23T05:37:13;14.63;;;10.02;;
25153;SDS011;47555;51.038;6.280;2022-07-23T05:39:38;12.50;;;8.40;;
25153;SDS011;47555;51.038;6.280;2022-07-23T05:42:04;11.07;;;8.18;;
25153;SDS011;47555;51.038;6.280;2022-07-23T05:44:30;11.48;;;8.05;;
25153;SDS011;47555;51.038;6.280;2022-07-23T05:46:55;12.68;;;8.40;;
25153;SDS011;47555;51.038;6.280;2022-07-23T05:49:21;12.85;;;9.15;;
25153;SDS011;47555;51.038;6.280;2022-07-23T05:51:46;15.77;;;10.00;;
25153;SDS011;47555;51.038;6.280;2022-07-23T05:54:12;15.68;;;9.50;;
25153;SDS011;47555;51.038;6.280;2022-07-23T05:56:37;17.05;;;9.93;;
25153;SDS011;47555;51.038;6.280;2022-07-23T05:59:03;15.98;;;9.55;;
25153;SDS011;47555;51.038;6.280;2022-07-23T06:01:28;12.15;;;8.65;;
25153;SDS011;47555;51.038;6.280;2022-07-23T06:03:54;13.23;;;9.57;;
25153;SDS011;47555;51.038;6.280;2022-07-23T06:06:19;14.07;;;9.57;;
25153;SDS011;47555;51.038;6.280;2022-07-23T06:08:45;15.05;;;8.95;;
25153;SDS011;47555;51.038;6.280;2022-07-23T06:11:10;16.30;;;9.43;;
25153;SDS011;47555;51.038;6.280;2022-07-23T06:13:36;13.90;;;9.20;;
25153;SDS011;47555;51.038;6.280;2022-07-23T06:16:01;15.63;;;9.20;;
25153;SDS011;47555;51.038;6.280;2022-07-23T06:18:27;12.45;;;8.90;;
25153;SDS011;47555;51.038;6.280;2022-07-23T06:20:53;16.70;;;9.70;;
25153;SDS011;47555;51.038;6.280;2022-07-23T06:23:19;16.45;;;10.32;;
25153;SDS011;47555;51.038;6.280;2022-07-23T06:25:44;15.60;;;9.70;;
25153;SDS011;47555;51.038;6.280;2022-07-23T06:28:10;15.50;;;10.32;;
25153;SDS011;47555;51.038;6.280;2022-07-23T06:30:36;17.05;;;10.30;;
25153;SDS011;47555;51.038;6.280;2022-07-23T06:33:02;18.15;;;10.85;;
25153;SDS011;47555;51.038;6.280;2022-07-23T06:35:27;18.23;;;10.98;;
25153;SDS011;47555;51.038;6.280;2022-07-23T06:37:53;19.30;;;10.32;;
25153;SDS011;47555;51.038;6.280;2022-07-23T06:40:18;19.42;;;11.32;;
25153;SDS011;47555;51.038;6.280;2022-07-23T06:42:45;18.70;;;11.45;;
25153;SDS011;47555;51.038;6.280;2022-07-23T06:45:10;17.70;;;10.85;;
25153;SDS011;47555;51.038;6.280;2022-07-23T06:47:36;18.05;;;10.50;;
25153;SDS011;47555;51.038;6.280;2022-07-23T06:50:02;20.92;;;10.60;;
25153;SDS011;47555;51.038;6.280;2022-07-23T06:52:28;19.65;;;11.52;;
25153;SDS011;47555;51.038;6.280;2022-07-23T06:54:53;20.17;;;12.18;;
25153;SDS011;47555;51.038;6.280;2022-07-23T06:57:19;18.85;;;11.80;;
25153;SDS011;47555;51.038;6.280;2022-07-23T06:59:44;16.88;;;10.48;;
25153;SDS011;47555;51.038;6.280;2022-07-23T07:02:10;19.98;;;11.85;;
25153;SDS011;47555;51.038;6.280;2022-07-23T07:04:35;19.23;;;12.07;;
25153;SDS011;47555;51.038;6.280;2022-07-23T07:07:01;20.58;;;12.10;;
25153;SDS011;47555;51.038;6.280;2022-07-23T07:09:27;17.10;;;11.23;;
25153;SDS011;47555;51.038;6.280;2022-07-23T07:11:52;18.13;;;11.27;;
25153;SDS011;47555;51.038;6.280;2022-07-23T07:14:18;19.55;;;11.43;;
25153;SDS011;47555;51.038;6.280;2022-07-23T07:16:43;21.52;;;12.30;;
25153;SDS011;47555;51.038;6.280;2022-07-23T07:19:09;23.27;;;11.05;;
25153;SDS011;47555;51.038;6.280;2022-07-23T07:21:34;21.63;;;12.25;;
25153;SDS011;47555;51.038;6.280;2022-07-23T07:24:00;18.55;;;11.98;;
25153;SDS011;47555;51.038;6.280;2022-07-23T07:26:26;19.20;;;11.60;;
25153;SDS011;47555;51.038;6.280;2022-07-23T07:28:51;20.35;;;12.45;;
25153;SDS011;47555;51.038;6.280;2022-07-23T07:31:17;20.30;;;11.57;;
25153;SDS011;47555;51.038;6.280;2022-07-23T07:33:42;20.65;;;11.55;;
25153;SDS011;47555;51.038;6.280;2022-07-23T07:36:08;20.60;;;12.35;;
25153;SDS011;47555;51.038;6.280;2022-07-23T07:38:34;22.58;;;12.88;;
25153;SDS011;47555;51.038;6.280;2022-07-23T07:40:59;23.30;;;12.88;;
25153;SDS011;47555;51.038;6.280;2022-07-23T07:43:25;21.80;;;12.30;;
25153;SDS011;47555;51.038;6.280;2022-07-23T07:45:50;21.67;;;13.00;;
25153;SDS011;47555;51.038;6.280;2022-07-23T07:48:16;20.83;;;12.20;;
25153;SDS011;47555;51.038;6.280;2022-07-23T07:50:41;18.77;;;10.95;;
25153;SDS011;47555;51.038;6.280;2022-07-23T07:53:07;18.50;;;11.05;;
25153;SDS011;47555;51.038;6.280;2022-07-23T07:55:33;22.90;;;12.90;;
25153;SDS011;47555;51.038;6.280;2022-07-23T07:57:59;20.17;;;11.63;;
25153;SDS011;47555;51.038;6.280;2022-07-23T08:00:25;19.83;;;11.15;;
25153;SDS011;47555;51.038;6.280;2022-07-23T08:02:52;20.98;;;11.57;;
25153;SDS011;47555;51.038;6.280;2022-07-23T08:05:20;18.13;;;10.57;;
25153;SDS011;47555;51.038;6.280;2022-07-23T08:07:47;12.50;;;8.80;;
25153;SDS011;47555;51.038;6.280;2022-07-23T08:10:13;16.70;;;9.75;;
25153;SDS011;47555;51.038;6.280;2022-07-23T08:12:42;15.45;;;9.48;;
25153;SDS011;47555;51.038;6.280;2022-07-23T08:15:10;16.45;;;9.65;;
25153;SDS011;47555;51.038;6.280;2022-07-23T08:17:37;13.77;;;10.48;;
25153;SDS011;47555;51.038;6.280;2022-07-23T08:20:03;15.77;;;9.23;;
25153;SDS011;47555;51.038;6.280;2022-07-23T08:22:43;11.55;;;8.52;;
25153;SDS011;47555;51.038;6.280;2022-07-23T08:25:12;13.90;;;9.05;;
25153;SDS011;47555;51.038;6.280;2022-07-23T08:27:38;14.25;;;8.93;;
25153;SDS011;47555;51.038;6.280;2022-07-23T08:30:04;13.77;;;8.85;;
25153;SDS011;47555;51.038;6.280;2022-07-23T08:32:30;14.80;;;9.80;;
25153;SDS011;47555;51.038;6.280;2022-07-23T08:34:55;15.50;;;9.55;;
25153;SDS011;47555;51.038;6.280;2022-07-23T08:37:21;13.77;;;8.57;;
25153;SDS011;47555;51.038;6.280;2022-07-23T08:39:46;15.90;;;9.77;;
25153;SDS011;47555;51.038;6.280;2022-07-23T08:42:13;12.70;;;7.72;;
25153;SDS011;47555;51.038;6.280;2022-07-23T08:44:40;14.88;;;8.80;;
25153;SDS011;47555;51.038;6.280;2022-07-23T08:47:10;14.73;;;8.95;;
25153;SDS011;47555;51.038;6.280;2022-07-23T08:49:36;11.45;;;8.40;;
25153;SDS011;47555;51.038;6.280;2022-07-23T08:52:03;11.52;;;8.20;;
25153;SDS011;47555;51.038;6.280;2022-07-23T08:54:29;10.48;;;7.57;;
25153;SDS011;47555;51.038;6.280;2022-07-23T08:56:56;13.18;;;8.93;;
25153;SDS011;47555;51.038;6.280;2022-07-23T08:59:21;12.60;;;8.35;;
25153;SDS011;47555;51.038;6.280;2022-07-23T09:01:47;10.52;;;6.95;;
25153;SDS011;47555;51.038;6.280;2022-07-23T09:04:12;11.38;;;6.72;;
25153;SDS011;47555;51.038;6.280;2022-07-23T09:06:38;9.82;;;7.78;;
25153;SDS011;47555;51.038;6.280;2022-07-23T09:09:17;11.45;;;7.47;;
25153;SDS011;47555;51.038;6.280;2022-07-23T09:11:47;11.93;;;6.80;;
25153;SDS011;47555;51.038;6.280;2022-07-23T09:14:36;11.73;;;6.32;;
25153;SDS011;47555;51.038;6.280;2022-07-23T09:17:13;8.88;;;6.72;;
25153;SDS011;47555;51.038;6.280;2022-07-23T09:19:41;9.23;;;6.57;;
25153;SDS011;47555;51.038;6.280;2022-07-23T09:22:24;11.10;;;6.55;;
25153;SDS011;47555;51.038;6.280;2022-07-23T09:25:12;8.90;;;6.78;;
25153;SDS011;47555;51.038;6.280;2022-07-23T09:27:53;10.75;;;7.13;;
25153;SDS011;47555;51.038;6.280;2022-07-23T09:30:20;11.38;;;7.30;;
25153;SDS011;47555;51.038;6.280;2022-07-23T09:35:47;11.00;;;7.07;;
25153;SDS011;47555;51.038;6.280;2022-07-23T09:38:15;9.50;;;6.20;;
25153;SDS011;47555;51.038;6.280;2022-07-23T09:40:41;8.60;;;5.85;;
25153;SDS011;47555;51.038;6.280;2022-07-23T09:43:08;8.23;;;5.80;;
25153;SDS011;47555;51.038;6.280;2022-07-23T09:45:33;8.90;;;6.90;;
25153;SDS011;47555;51.038;6.280;2022-07-23T09:48:16;10.45;;;6.70;;
25153;SDS011;47555;51.038;6.280;2022-07-23T09:50:42;11.05;;;7.63;;
25153;SDS011;47555;51.038;6.280;2022-07-23T09:53:08;7.35;;;6.40;;
25153;SDS011;47555;51.038;6.280;2022-07-23T09:55:35;8.80;;;6.78;;
25153;SDS011;47555;51.038;6.280;2022-07-23T09:58:07;11.75;;;8.55;;
25153;SDS011;47555;51.038;6.280;2022-07-23T10:00:37;10.95;;;6.85;;
25153;SDS011;47555;51.038;6.280;2022-07-23T10:03:04;9.18;;;7.25;;
25153;SDS011;47555;51.038;6.280;2022-07-23T10:05:31;9.82;;;6.70;;
25153;SDS011;47555;51.038;6.280;2022-07-23T10:08:01;7.50;;;5.22;;
25153;SDS011;47555;51.038;6.280;2022-07-23T10:10:27;7.43;;;5.30;;
25153;SDS011;47555;51.038;6.280;2022-07-23T10:12:54;7.18;;;4.90;;
25153;SDS011;47555;51.038;6.280;2022-07-23T10:15:23;7.63;;;5.68;;
25153;SDS011;47555;51.038;6.280;2022-07-23T10:17:50;7.55;;;5.15;;
25153;SDS011;47555;51.038;6.280;2022-07-23T10:20:16;6.00;;;5.00;;
25153;SDS011;47555;51.038;6.280;2022-07-23T10:22:50;7.50;;;5.25;;
25153;SDS011;47555;51.038;6.280;2022-07-23T10:25:32;7.25;;;4.57;;
25153;SDS011;47555;51.038;6.280;2022-07-23T10:28:06;7.45;;;4.78;;
25153;SDS011;47555;51.038;6.280;2022-07-23T10:36:22;6.93;;;4.88;;
25153;SDS011;47555;51.038;6.280;2022-07-23T10:42:14;6.80;;;4.82;;
25153;SDS011;47555;51.038;6.280;2022-07-23T10:44:42;8.30;;;4.88;;
25153;SDS011;47555;51.038;6.280;2022-07-23T10:47:09;4.18;;;3.78;;
25153;SDS011;47555;51.038;6.280;2022-07-23T10:57:57;5.03;;;4.22;;
25153;SDS011;47555;51.038;6.280;2022-07-23T11:00:24;5.00;;;3.45;;
25153;SDS011;47555;51.038;6.280;2022-07-23T11:02:55;3.75;;;3.40;;
25153;SDS011;47555;51.038;6.280;2022-07-23T11:05:24;4.82;;;3.45;;
25153;SDS011;47555;51.038;6.280;2022-07-23T11:10:35;4.53;;;3.85;;
25153;SDS011;47555;51.038;6.280;2022-07-23T11:32:18;3.85;;;2.70;;
25153;SDS011;47555;51.038;6.280;2022-07-23T11:34:48;3.83;;;3.30;;
25153;SDS011;47555;51.038;6.280;2022-07-23T11:37:29;3.35;;;2.58;;
25153;SDS011;47555;51.038;6.280;2022-07-23T11:40:03;3.53;;;2.65;;
25153;SDS011;47555;51.038;6.280;2022-07-23T11:45:33;5.40;;;2.95;;
25153;SDS011;47555;51.038;6.280;2022-07-23T11:48:03;4.25;;;2.97;;
25153;SDS011;47555;51.038;6.280;2022-07-23T11:50:29;4.05;;;2.92;;
25153;SDS011;47555;51.038;6.280;2022-07-23T11:52:55;2.95;;;2.40;;
25153;SDS011;47555;51.038;6.280;2022-07-23T11:55:21;4.05;;;2.55;;
25153;SDS011;47555;51.038;6.280;2022-07-23T11:57:47;3.38;;;3.05;;
25153;SDS011;47555;51.038;6.280;2022-07-23T12:00:16;3.20;;;2.90;;
25153;SDS011;47555;51.038;6.280;2022-07-23T12:03:02;3.33;;;2.83;;
25153;SDS011;47555;51.038;6.280;2022-07-23T12:05:32;4.45;;;3.00;;
25153;SDS011;47555;51.038;6.280;2022-07-23T12:08:01;5.43;;;3.10;;
25153;SDS011;47555;51.038;6.280;2022-07-23T12:13:08;3.35;;;3.03;;
25153;SDS011;47555;51.038;6.280;2022-07-23T12:15:37;3.65;;;3.00;;
25153;SDS011;47555;51.038;6.280;2022-07-23T12:18:09;3.50;;;2.90;;
25153;SDS011;47555;51.038;6.280;2022-07-23T12:20:39;3.53;;;3.03;;
25153;SDS011;47555;51.038;6.280;2022-07-23T12:23:08;4.40;;;3.35;;
25153;SDS011;47555;51.038;6.280;2022-07-23T12:25:36;4.38;;;2.92;;
25153;SDS011;47555;51.038;6.280;2022-07-23T12:28:06;3.05;;;2.60;;
25153;SDS011;47555;51.038;6.280;2022-07-23T12:30:37;3.58;;;2.83;;
25153;SDS011;47555;51.038;6.280;2022-07-23T12:33:05;3.45;;;3.15;;
25153;SDS011;47555;51.038;6.280;2022-07-23T12:35:42;3.15;;;2.70;;
25153;SDS011;47555;51.038;6.280;2022-07-23T12:38:13;3.10;;;2.80;;
25153;SDS011;47555;51.038;6.280;2022-07-23T12:40:51;4.13;;;3.25;;
25153;SDS011;47555;51.038;6.280;2022-07-23T12:45:48;4.00;;;2.83;;
25153;SDS011;47555;51.038;6.280;2022-07-23T12:48:22;3.60;;;2.92;;
25153;SDS011;47555;51.038;6.280;2022-07-23T12:55:49;4.05;;;2.78;;
25153;SDS011;47555;51.038;6.280;2022-07-23T13:03:35;3.45;;;3.08;;
25153;SDS011;47555;51.038;6.280;2022-07-23T13:06:03;2.90;;;2.60;;
25153;SDS011;47555;51.038;6.280;2022-07-23T13:08:30;3.35;;;2.97;;
25153;SDS011;47555;51.038;6.280;2022-07-23T13:10:58;4.50;;;3.00;;
25153;SDS011;47555;51.038;6.280;2022-07-23T13:13:24;3.55;;;2.90;;
25153;SDS011;47555;51.038;6.280;2022-07-23T13:15:52;3.00;;;2.72;;
25153;SDS011;47555;51.038;6.280;2022-07-23T13:18:18;3.28;;;2.67;;
25153;SDS011;47555;51.038;6.280;2022-07-23T13:20:44;3.55;;;2.92;;
25153;SDS011;47555;51.038;6.280;2022-07-23T13:23:11;2.78;;;2.58;;
25153;SDS011;47555;51.038;6.280;2022-07-23T13:25:37;2.65;;;2.45;;
25153;SDS011;47555;51.038;6.280;2022-07-23T13:28:02;3.55;;;2.95;;
25153;SDS011;47555;51.038;6.280;2022-07-23T13:30:29;4.85;;;3.00;;
25153;SDS011;47555;51.038;6.280;2022-07-23T13:32:55;2.65;;;2.40;;
25153;SDS011;47555;51.038;6.280;2022-07-23T13:35:21;5.20;;;2.60;;
25153;SDS011;47555;51.038;6.280;2022-07-23T13:37:46;2.53;;;2.30;;
25153;SDS011;47555;51.038;6.280;2022-07-23T13:40:12;3.20;;;2.50;;
25153;SDS011;47555;51.038;6.280;2022-07-23T13:42:37;4.03;;;2.72;;
25153;SDS011;47555;51.038;6.280;2022-07-23T13:45:04;3.95;;;2.50;;
25153;SDS011;47555;51.038;6.280;2022-07-23T13:47:30;3.05;;;2.35;;
25153;SDS011;47555;51.038;6.280;2022-07-23T13:49:56;3.72;;;2.50;;
25153;SDS011;47555;51.038;6.280;2022-07-23T13:52:22;2.67;;;2.47;;
25153;SDS011;47555;51.038;6.280;2022-07-23T13:54:47;3.40;;;2.75;;
25153;SDS011;47555;51.038;6.280;2022-07-23T13:57:13;2.88;;;2.42;;
25153;SDS011;47555;51.038;6.280;2022-07-23T13:59:39;2.67;;;2.45;;
25153;SDS011;47555;51.038;6.280;2022-07-23T14:02:04;3.78;;;2.97;;
25153;SDS011;47555;51.038;6.280;2022-07-23T14:04:30;3.00;;;2.38;;
25153;SDS011;47555;51.038;6.280;2022-07-23T14:06:56;2.65;;;2.45;;
25153;SDS011;47555;51.038;6.280;2022-07-23T14:09:22;3.05;;;2.78;;
25153;SDS011;47555;51.038;6.280;2022-07-23T14:11:48;3.45;;;2.42;;
25153;SDS011;47555;51.038;6.280;2022-07-23T14:14:15;2.95;;;2.65;;
25153;SDS011;47555;51.038;6.280;2022-07-23T14:16:42;3.05;;;2.65;;
25153;SDS011;47555;51.038;6.280;2022-07-23T14:19:07;2.85;;;2.50;;
25153;SDS011;47555;51.038;6.280;2022-07-23T14:21:33;4.03;;;2.63;;
25153;SDS011;47555;51.038;6.280;2022-07-23T14:23:58;3.60;;;2.63;;
25153;SDS011;47555;51.038;6.280;2022-07-23T14:26:24;2.88;;;2.63;;
25153;SDS011;47555;51.038;6.280;2022-07-23T14:28:49;3.58;;;3.00;;
25153;SDS011;47555;51.038;6.280;2022-07-23T14:31:15;3.20;;;2.60;;
25153;SDS011;47555;51.038;6.280;2022-07-23T14:33:41;2.83;;;2.58;;
25153;SDS011;47555;51.038;6.280;2022-07-23T14:36:06;3.33;;;2.85;;
25153;SDS011;47555;51.038;6.280;2022-07-23T14:38:32;3.85;;;2.72;;
25153;SDS011;47555;51.038;6.280;2022-07-23T14:40:57;3.70;;;2.80;;
25153;SDS011;47555;51.038;6.280;2022-07-23T14:43:23;3.53;;;2.70;;
25153;SDS011;47555;51.038;6.280;2022-07-23T14:45:49;2.90;;;2.63;;
25153;SDS011;47555;51.038;6.280;2022-07-23T14:48:14;3.97;;;2.72;;
25153;SDS011;47555;51.038;6.280;2022-07-23T14:50:40;3.03;;;2.55;;
25153;SDS011;47555;51.038;6.280;2022-07-23T14:53:06;3.13;;;2.83;;
25153;SDS011;47555;51.038;6.280;2022-07-23T14:55:32;3.28;;;2.95;;
25153;SDS011;47555;51.038;6.280;2022-07-23T14:57:58;3.33;;;2.78;;
25153;SDS011;47555;51.038;6.280;2022-07-23T15:00:23;3.20;;;2.70;;
25153;SDS011;47555;51.038;6.280;2022-07-23T15:02:52;3.80;;;2.95;;
25153;SDS011;47555;51.038;6.280;2022-07-23T15:05:18;2.75;;;2.55;;
25153;SDS011;47555;51.038;6.280;2022-07-23T15:07:44;3.05;;;2.75;;
25153;SDS011;47555;51.038;6.280;2022-07-23T15:10:10;4.15;;;2.85;;
25153;SDS011;47555;51.038;6.280;2022-07-23T15:12:35;3.05;;;2.75;;
25153;SDS011;47555;51.038;6.280;2022-07-23T15:15:01;3.55;;;2.60;;
25153;SDS011;47555;51.038;6.280;2022-07-23T15:17:27;3.67;;;2.90;;
25153;SDS011;47555;51.038;6.280;2022-07-23T15:19:52;3.75;;;2.72;;
25153;SDS011;47555;51.038;6.280;2022-07-23T15:22:18;3.28;;;2.97;;
25153;SDS011;47555;51.038;6.280;2022-07-23T15:24:43;3.40;;;3.10;;
25153;SDS011;47555;51.038;6.280;2022-07-23T15:27:09;2.90;;;2.70;;
25153;SDS011;47555;51.038;6.280;2022-07-23T15:29:35;3.33;;;3.00;;
25153;SDS011;47555;51.038;6.280;2022-07-23T15:32:01;3.15;;;2.88;;
25153;SDS011;47555;51.038;6.280;2022-07-23T15:34:28;4.00;;;3.00;;
25153;SDS011;47555;51.038;6.280;2022-07-23T15:36:54;3.25;;;2.95;;
25153;SDS011;47555;51.038;6.280;2022-07-23T15:39:20;3.97;;;3.30;;